Data for 02/07/2015

Time Sea-Level Adjusted Pressure Absolute Pressure Temperature Relative Humidity Dew Point   
(mb) (inHg) (mb) (inHg) (C) (F) (%) (C) (F)
00:05 1008 29.77 837 24.72 12.8 55 26 -6.2 20.8
00:10 1008 29.77 837 24.72 12.9 55.1 24 -7.1 19.2
00:15 1008 29.77 838 24.75 13.2 55.8 23 -7.2 19.1
00:20 1008 29.77 838 24.75 13.1 55.5 24 -6.8 19.8
00:25 1008 29.77 838 24.75 13.1 55.5 25 -6.7 19.9
00:30 1009 29.8 838 24.75 13.2 55.8 26 -6.1 21.1
00:35 1009 29.8 838 24.75 13.1 55.6 26 -6.1 20.9
00:40 1009 29.8 838 24.75 12.9 55.2 26 -6.1 21.1
00:45 1009 29.8 838 24.75 12.8 55.1 26 -6.2 20.9
00:50 1009 29.8 838 24.75 12.6 54.7 26 -6.2 20.8
00:55 1009 29.8 838 24.75 12.6 54.7 26 -6.4 20.5
01:00 1009 29.8 838 24.75 12.8 55 26 -6.4 20.4
01:05 1009 29.8 838 24.75 12.8 55 26 -6.4 20.4
01:10 1009 29.8 838 24.75 12.9 55.2 26 -6.2 20.9
01:15 1009 29.8 838 24.75 12.9 55.2 26 -6.3 20.6
01:20 1009 29.8 838 24.75 12.8 55 27 -5.8 21.5
01:25 1009 29.8 838 24.75 12.5 54.6 27 -5.7 21.7
01:30 1009 29.8 838 24.75 12.4 54.3 27 -6.1 21
01:35 1009 29.8 838 24.75 12.6 54.6 26 -6.2 20.9
01:40 1009 29.8 838 24.75 12.5 54.4 27 -5.8 21.5
01:45 1009 29.8 838 24.75 12.3 54.2 28 -5.5 22.1
01:50 1008 29.77 838 24.75 12.2 53.9 28 -5.8 21.6
01:55 1008 29.77 838 24.75 12.4 54.4 28 -5.4 22.3
02:00 1008 29.77 837 24.72 12.3 54.2 26 -6.5 20.4
02:05 1008 29.77 837 24.72 12.9 55.2 27 -5.8 21.6
02:10 1008 29.77 837 24.72 12.9 55.1 27 -5.8 21.5
02:15 1008 29.77 837 24.72 12.8 55.1 27 -5.5 22.2
02:20 1008 29.77 837 24.72 12.6 54.6 27 -5.7 21.7
02:25 1008 29.77 837 24.72 12.9 55.2 26 -5.9 21.3
02:30 1008 29.77 837 24.72 13.2 55.8 26 -5.8 21.6
02:35 1008 29.77 837 24.72 12.8 55.1 28 -5.2 22.7
02:40 1008 29.77 837 24.72 12.5 54.5 28 -5.5 22.1
02:45 1008 29.77 837 24.72 12.7 54.8 28 -5.5 22
02:50 1008 29.77 838 24.75 12.7 54.8 29 -4.7 23.5
02:55 1008 29.77 838 24.75 12.3 54.1 31 -4.5 23.8
03:00 1008 29.77 838 24.75 12.2 54 30 -4.9 23.2
03:05 1009 29.8 838 24.75 12.4 54.2 29 -5.2 22.7
03:10 1008 29.77 838 24.75 12.4 54.4 31 -4.2 24.4
03:15 1008 29.77 838 24.75 12.2 54 33 -3.7 25.4
03:20 1008 29.77 838 24.75 12.1 53.8 32 -4.1 24.6
03:25 1009 29.8 838 24.75 12.3 54.1 33 -3.6 25.4
03:30 1009 29.8 838 24.75 11.8 53.3 35 -2.9 26.8
03:35 1009 29.8 838 24.75 11.5 52.6 35 -3.3 26.1
03:40 1009 29.8 838 24.75 11.7 53.1 36 -2.8 27
03:45 1009 29.8 838 24.75 11.4 52.6 37 -2.6 27.4
03:50 1009 29.8 838 24.75 11 51.8 39 -2.3 27.9
03:55 1009 29.8 838 24.75 11 51.8 38 -2.7 27.1
04:00 1009 29.8 838 24.75 11.1 52 36 -3.3 26
04:05 1009 29.8 838 24.75 11.5 52.7 36 -3.2 26.2
04:10 1009 29.8 838 24.75 11.5 52.7 35 -3.2 26.2
04:15 1009 29.8 838 24.75 11.5 52.7 37 -2.8 26.9
04:20 1009 29.8 838 24.75 11.2 52.2 38 -2.5 27.5
04:25 1009 29.8 838 24.75 11 51.8 38 -2.7 27.1
04:30 1009 29.8 838 24.75 10.8 51.4 38 -2.8 27
04:35 1009 29.8 838 24.75 10.9 51.6 39 -2.6 27.3
04:40 1009 29.8 838 24.75 10.9 51.6 39 -2.4 27.6
04:45 1009 29.8 838 24.75 10.8 51.4 40 -2.1 28.2
04:50 1009 29.8 838 24.75 10.5 50.9 43 -1.6 29.1
04:55 1009 29.8 838 24.75 10.3 50.6 44 -1.2 29.8
05:00 1009 29.8 838 24.75 10.1 50.1 44 -1.5 29.3
05:05 1009 29.8 838 24.75 10 50 45 -1.5 29.3
05:10 1009 29.8 838 24.75 10 50.1 45 -1.2 29.8
05:15 1009 29.8 838 24.75 9.9 49.8 46 -1.1 29.9
05:20 1009 29.8 838 24.75 9.6 49.4 49 -0.5 31
05:25 1009 29.8 838 24.75 9.4 48.9 49 -0.7 30.7
05:30 1009 29.8 838 24.75 9.3 48.7 50 -0.5 31.1
05:35 1008 29.77 838 24.75 9.2 48.5 51 -0.5 31.1
05:40 1008 29.77 838 24.75 9.2 48.6 52 -0 32
05:45 1009 29.8 838 24.75 8.8 47.8 53 -0.1 31.8
05:50 1008 29.77 838 24.75 8.7 47.7 53 -0.4 31.3
05:55 1008 29.77 838 24.75 8.8 47.8 54 -0 32
06:00 1008 29.77 838 24.75 8.6 47.5 56 0.3 32.6
06:05 1008 29.77 838 24.75 8.4 47.1 57 0.5 32.8
06:10 1008 29.77 837 24.72 8.2 46.7 57 0.3 32.5
06:15 1008 29.77 837 24.72 8.2 46.8 57 0.2 32.4
06:20 1008 29.77 837 24.72 8.3 46.9 56 0.1 32.1
06:25 1008 29.77 837 24.72 8.3 47 54 -0.4 31.3
06:30 1008 29.77 837 24.72 8.7 47.6 55 0.1 32.2
06:35 1008 29.77 837 24.72 8.5 47.3 56 0.1 32.3
06:40 1008 29.77 837 24.72 8.4 47.2 55 -0.1 31.8
06:45 1008 29.77 837 24.72 8.6 47.4 53 -0.4 31.4
06:50 1008 29.77 837 24.72 8.7 47.7 52 -0.5 31.1
06:55 1008 29.77 837 24.72 8.9 47.9 51 -0.6 30.9
07:00 1008 29.77 837 24.72 9.1 48.3 51 -0.5 31.1
07:05 1008 29.77 837 24.72 9.1 48.4 50 -0.7 30.8
07:10 1008 29.77 837 24.72 9.4 48.9 50 -0.3 31.4
07:15 1008 29.77 837 24.72 9.2 48.5 52 -0.2 31.6
07:20 1008 29.77 837 24.72 8.9 48.1 51 -0.6 30.9
07:25 1008 29.77 837 24.72 9 48.3 51 -0.5 31.1
07:30 1008 29.77 837 24.72 9 48.2 50 -0.9 30.4
07:35 1008 29.77 837 24.72 9.3 48.7 50 -0.6 30.9
07:40 1007 29.74 837 24.72 9.4 48.8 49 -0.8 30.5
07:45 1007 29.74 837 24.72 9.4 48.8 49 -0.9 30.4
07:50 1007 29.74 837 24.72 9.8 49.7 47 -0.8 30.5
07:55 1007 29.74 837 24.72 9.8 49.6 49 -0.5 31.2
08:00 1007 29.74 837 24.72 9.4 48.9 50 -0.4 31.3
08:05 1007 29.74 836 24.69 9.3 48.8 50 -0.6 30.9
08:10 1007 29.74 836 24.69 9.4 49 49 -0.6 30.9
08:15 1007 29.74 836 24.69 9.6 49.2 49 -0.7 30.8
08:20 1007 29.74 836 24.69 9.5 49.1 50 -0.5 31.1
08:25 1007 29.74 836 24.69 9.6 49.2 48 -0.9 30.4
08:30 1007 29.74 836 24.69 9.7 49.5 48 -0.6 30.9
08:35 1007 29.74 836 24.69 9.7 49.5 47 -0.9 30.3
08:40 1007 29.74 836 24.69 9.9 49.9 46 -1 30.2
08:45 1007 29.74 836 24.69 10 49.9 47 -0.8 30.6
08:50 1007 29.74 836 24.69 9.9 49.7 47 -1 30.2
08:55 1007 29.74 836 24.69 9.8 49.7 46 -1.3 29.7
09:00 1007 29.74 836 24.69 9.9 49.7 48 -0.7 30.7
09:05 1007 29.74 836 24.69 9.7 49.4 47 -1.2 29.9
09:10 1007 29.74 836 24.69 9.8 49.7 46 -1.2 29.8
09:15 1007 29.74 836 24.69 9.8 49.7 46 -1.2 29.8
09:20 1007 29.74 836 24.69 10.1 50.1 44 -1.7 29
09:25 1007 29.74 836 24.69 10.2 50.3 45 -1.1 30.1
09:30 1007 29.74 836 24.69 10.3 50.5 44 -1.4 29.5
09:35 1007 29.74 836 24.69 10.1 50.2 47 -0.7 30.7
09:40 1007 29.74 836 24.69 9.8 49.6 47 -0.9 30.5
09:45 1007 29.74 836 24.69 9.7 49.5 49 -0.5 31.1
09:50 1007 29.74 836 24.69 9.5 49 48 -0.8 30.5
09:55 1007 29.74 836 24.69 9.4 49 49 -0.7 30.8
10:00 1007 29.74 836 24.69 9.4 48.8 49 -0.7 30.8
10:05 1007 29.74 836 24.69 9.2 48.6 51 -0.4 31.3
10:10 1007 29.74 836 24.69 9.1 48.3 52 -0.2 31.6
10:15 1007 29.74 836 24.69 9.1 48.4 52 -0.3 31.5
10:20 1007 29.74 836 24.69 8.9 48 55 0.5 32.8
10:25 1007 29.74 836 24.69 8.6 47.4 55 0.1 32.1
10:30 1007 29.74 836 24.69 8.7 47.7 54 0 32.1
10:35 1007 29.74 836 24.69 8.9 47.9 54 -0 31.9
10:40 1007 29.74 836 24.69 8.9 47.9 54 0.1 32.2
10:45 1007 29.74 836 24.69 8.8 47.9 52 -0.3 31.4
10:50 1007 29.74 836 24.69 9 48.3 53 -0.1 31.9
10:55 1007 29.74 836 24.69 8.8 47.9 53 -0.1 31.8
11:00 1007 29.74 836 24.69 9 48.3 51 -0.4 31.2
11:05 1007 29.74 836 24.69 9.1 48.4 51 -0.5 31.2
11:10 1007 29.74 836 24.69 9.3 48.7 51 -0.3 31.5
11:15 1007 29.74 836 24.69 9.2 48.6 51 -0.4 31.2
11:20 1007 29.74 836 24.69 9.4 48.9 50 -0.5 31.1
11:25 1007 29.74 836 24.69 9.4 49 50 -0.5 31.1
11:30 1007 29.74 836 24.69 9.6 49.2 47 -1.1 30.1
11:35 1007 29.74 836 24.69 9.7 49.5 48 -0.8 30.6
11:40 1007 29.74 836 24.69 9.7 49.5 48 -0.7 30.8
11:45 1007 29.74 836 24.69 9.7 49.5 48 -0.9 30.5
11:50 1007 29.74 837 24.72 9.8 49.6 48 -0.8 30.6
11:55 1007 29.74 837 24.72 9.8 49.7 47 -1 30.2
12:00 1008 29.77 837 24.72 9.9 49.8 45 -1.4 29.5
12:05 1008 29.77 837 24.72 10 50 46 -1.1 30.1
12:10 1008 29.77 837 24.72 10.2 50.4 44 -1.6 29.1
12:15 1008 29.77 837 24.72 10.6 51 43 -1.6 29.1
12:20 1008 29.77 837 24.72 11 51.8 41 -1.7 29
12:25 1008 29.77 837 24.72 11.6 53 40 -1.5 29.3
12:30 1008 29.77 837 24.72 11.8 53.2 39 -1.6 29.1
12:35 1008 29.77 837 24.72 11.8 53.2 40 -1.4 29.5
12:40 1008 29.77 837 24.72 11.7 53 39 -1.7 28.9
12:45 1008 29.77 837 24.72 11.5 52.6 41 -1.3 29.7
12:50 1008 29.77 837 24.72 11.4 52.6 41 -1.3 29.6
12:55 1008 29.77 837 24.72 11.2 52.2 42 -1.3 29.7
13:00 1008 29.77 837 24.72 11.4 52.5 40 -1.5 29.3
13:05 1008 29.77 837 24.72 11.3 52.3 41 -1.4 29.4
13:10 1008 29.77 837 24.72 11.7 53 38 -2 28.4
13:15 1008 29.77 837 24.72 12.1 53.9 35 -2.7 27.1
13:20 1008 29.77 837 24.72 12.1 53.8 34 -3.2 26.2
13:25 1008 29.77 837 24.72 12 53.6 35 -2.8 27
13:30 1008 29.77 837 24.72 11.9 53.5 35 -3 26.6
13:35 1008 29.77 837 24.72 11.9 53.5 33 -3.6 25.5
13:40 1008 29.77 837 24.72 12.1 53.7 34 -3.3 26.1
13:45 1008 29.77 837 24.72 12.1 53.8 34 -3.3 26
13:50 1008 29.77 837 24.72 12.1 53.7 34 -3.1 26.4
13:55 1008 29.77 837 24.72 11.9 53.5 36 -2.8 27
14:00 1008 29.77 838 24.75 12 53.5 36 -2.6 27.3
14:05 1008 29.77 838 24.75 11.9 53.4 36 -2.5 27.5
14:10 1008 29.77 838 24.75 11.6 52.9 37 -2.6 27.4
14:15 1008 29.77 838 24.75 11.5 52.6 35 -3.5 25.8
14:20 1008 29.77 838 24.75 11.6 52.9 35 -3.1 26.4
14:25 1008 29.77 838 24.75 11.6 52.8 35 -3.4 25.8
14:30 1008 29.77 838 24.75 11.6 52.8 35 -3.2 26.3
14:35 1008 29.77 838 24.75 11.6 52.9 35 -3.2 26.2
14:40 1009 29.8 838 24.75 11.7 53.1 34 -3.8 25.2
14:45 1009 29.8 838 24.75 11.7 53.1 37 -2.3 27.8
14:50 1009 29.8 838 24.75 11.4 52.5 39 -1.9 28.5
14:55 1009 29.8 838 24.75 11 51.8 42 -1.3 29.7
15:00 1009 29.8 838 24.75 10.7 51.2 44 -1.1 30.1
15:05 1009 29.8 838 24.75 10.6 51.1 44 -1 30.1
15:10 1009 29.8 838 24.75 10.7 51.2 46 -0.6 31
15:15 1009 29.8 838 24.75 10.9 51.6 39 -2.6 27.4
15:20 1009 29.8 838 24.75 11.8 53.2 33 -4 24.8
15:25 1009 29.8 838 24.75 12.3 54.1 33 -3.7 25.4
15:30 1009 29.8 838 24.75 12.4 54.4 32 -3.6 25.5
15:35 1009 29.8 838 24.75 12.5 54.5 31 -4 24.8
15:40 1009 29.8 838 24.75 12.8 55 31 -4 24.8
15:45 1009 29.8 838 24.75 12.9 55.2 30 -4.1 24.6
15:50 1009 29.8 838 24.75 13 55.3 31 -3.8 25.2
15:55 1009 29.8 838 24.75 13 55.4 31 -3.8 25.1
16:00 1009 29.8 838 24.75 12.5 54.6 32 -3.6 25.5
16:05 1009 29.8 838 24.75 12.4 54.3 32 -3.6 25.5
16:10 1009 29.8 838 24.75 12.8 55 32 -3.4 25.9
16:15 1009 29.8 838 24.75 12.7 54.9 32 -3.4 25.8
16:20 1009 29.8 838 24.75 12.5 54.5 32 -3.8 25.2
16:25 1009 29.8 838 24.75 12.4 54.2 32 -3.7 25.3
16:30 1009 29.8 838 24.75 12.4 54.3 31 -4.1 24.6
16:35 1009 29.8 838 24.75 12.6 54.7 32 -3.8 25.2
16:40 1009 29.8 839 24.78 12.2 54 32 -4.1 24.6
16:45 1010 29.83 839 24.78 12.2 54 32 -3.8 25.1
16:50 1010 29.83 839 24.78 12 53.6 33 -3.7 25.3
16:55 1010 29.83 839 24.78 12.1 53.8 32 -4.1 24.6
17:00 1010 29.83 839 24.78 12.4 54.2 32 -4 24.8
17:05 1010 29.83 839 24.78 12.2 54 33 -3.6 25.5
17:10 1010 29.83 839 24.78 11.7 53 34 -3.7 25.3
17:15 1010 29.83 839 24.78 11.5 52.7 34 -3.9 25
17:20 1010 29.83 840 24.81 11.4 52.6 35 -3.5 25.6
17:25 1011 29.85 840 24.81 11.2 52.2 35 -3.7 25.3
17:30 1011 29.85 840 24.81 11.2 52.1 34 -4.1 24.6
17:35 1011 29.85 840 24.81 11.2 52.1 34 -4.1 24.6
17:40 1011 29.85 840 24.81 11.2 52.1 34 -4 24.8
17:45 1011 29.85 840 24.81 11.3 52.3 34 -4.2 24.5
17:50 1011 29.85 840 24.81 11.6 52.8 33 -4 24.8
17:55 1011 29.85 840 24.81 11.7 53 33 -4.1 24.6
18:00 1011 29.85 840 24.81 11.4 52.5 33 -4.2 24.4
18:05 1011 29.85 840 24.81 11.2 52.1 33 -4.3 24.2
18:10 1011 29.85 840 24.81 11.1 52 33 -4.5 23.9
18:15 1011 29.85 840 24.81 11.2 52.1 33 -4.5 23.8
18:20 1011 29.85 840 24.81 11 51.8 33 -4.6 23.8
18:25 1011 29.85 841 24.83 10.8 51.4 34 -4.5 23.8
18:30 1011 29.85 841 24.83 10.6 51.1 33 -4.9 23.2
18:35 1012 29.88 841 24.83 10.6 51 33 -4.9 23.2
18:40 1012 29.88 841 24.83 10.5 50.8 33 -4.9 23.2
18:45 1012 29.88 841 24.83 10.4 50.7 34 -4.8 23.3
18:50 1012 29.88 841 24.83 10.4 50.6 34 -4.8 23.3
18:55 1012 29.88 841 24.83 10.3 50.6 33 -5.1 22.9
19:00 1012 29.88 841 24.83 10.3 50.6 33 -5 23
19:05 1012 29.88 841 24.83 10.3 50.5 34 -5.1 22.9
19:10 1012 29.88 841 24.83 10.1 50.1 34 -5.1 22.9
19:15 1012 29.88 841 24.83 9.8 49.6 35 -5.1 22.8
19:20 1012 29.88 841 24.83 9.6 49.2 35 -5.1 22.8
19:25 1012 29.88 841 24.83 9.3 48.7 36 -5 23
19:30 1012 29.88 841 24.83 9.2 48.5 35 -5.4 22.2
19:35 1012 29.88 841 24.83 9.2 48.5 36 -5.3 22.5
19:40 1012 29.88 841 24.83 9 48.3 36 -5.3 22.4
19:45 1012 29.88 841 24.83 8.9 48 36 -5.3 22.5
19:50 1012 29.88 842 24.86 8.8 47.8 37 -5.2 22.7
19:55 1012 29.88 842 24.86 8.8 47.8 36 -5.5 22.2
20:00 1012 29.88 842 24.86 8.9 47.9 36 -5.4 22.3
20:05 1013 29.91 842 24.86 8.8 47.8 37 -5.1 22.9
20:10 1013 29.91 842 24.86 8.6 47.5 38 -5 23
20:15 1013 29.91 842 24.86 8.5 47.3 38 -5.1 22.8
20:20 1013 29.91 842 24.86 8.6 47.6 38 -4.9 23.2
20:25 1013 29.91 842 24.86 8.6 47.5 38 -4.8 23.3
20:30 1013 29.91 842 24.86 8.6 47.4 38 -4.8 23.3
20:35 1013 29.91 842 24.86 8.5 47.3 39 -4.8 23.3
20:40 1013 29.91 842 24.86 8.4 47.1 39 -4.7 23.5
20:45 1013 29.91 842 24.86 8.3 46.9 39 -4.8 23.3
20:50 1013 29.91 842 24.86 8.3 46.9 40 -4.7 23.6
20:55 1013 29.91 842 24.86 8.2 46.7 40 -4.8 23.4
21:00 1013 29.91 842 24.86 8.1 46.7 40 -4.7 23.5
21:05 1013 29.91 842 24.86 8.1 46.6 40 -4.8 23.4
21:10 1013 29.91 843 24.89 8.1 46.6 40 -4.7 23.6
21:15 1013 29.91 843 24.89 8 46.3 41 -4.5 23.8
21:20 1013 29.91 843 24.89 7.8 46.1 42 -4.4 24.1
21:25 1014 29.94 843 24.89 7.6 45.7 42 -4.3 24.2
21:30 1014 29.94 843 24.89 7.5 45.4 42 -4.5 23.9
21:35 1014 29.94 843 24.89 7.6 45.7 41 -4.7 23.6
21:40 1014 29.94 843 24.89 7.8 46 41 -4.7 23.5
21:45 1014 29.94 843 24.89 7.9 46.2 41 -4.6 23.7
21:50 1014 29.94 843 24.89 7.9 46.1 41 -4.6 23.8
21:55 1014 29.94 843 24.89 7.8 46 41 -4.6 23.8
22:00 1014 29.94 843 24.89 7.7 45.8 42 -4.4 24
22:05 1014 29.94 843 24.89 7.6 45.6 42 -4.4 24.1
22:10 1014 29.94 843 24.89 7.5 45.5 42 -4.5 23.8
22:15 1014 29.94 843 24.89 7.5 45.4 42 -4.5 23.9
22:20 1014 29.94 843 24.89 7.4 45.4 42 -4.5 23.8
22:25 1014 29.94 843 24.89 7.5 45.5 42 -4.6 23.7
22:30 1014 29.94 843 24.89 7.5 45.4 42 -4.5 23.9
22:35 1014 29.94 843 24.89 7.3 45.2 42 -4.8 23.4
22:40 1014 29.94 843 24.89 7.3 45.2 43 -4.5 23.9
22:45 1014 29.94 843 24.89 7.1 44.9 43 -4.5 24
22:50 1014 29.94 843 24.89 7 44.5 44 -4.5 23.9
22:55 1014 29.94 843 24.89 6.8 44.3 44 -4.6 23.8
23:00 1014 29.94 843 24.89 6.8 44.3 43 -4.8 23.4
23:05 1014 29.94 843 24.89 6.9 44.4 43 -4.8 23.3
23:10 1014 29.94 843 24.89 6.9 44.5 42 -5 23.1
23:15 1014 29.94 843 24.89 7.1 44.7 42 -5 23
23:20 1014 29.94 844 24.92 7.1 44.8 41 -5.2 22.6
23:25 1014 29.94 844 24.92 7.6 45.6 40 -5.2 22.7
23:30 1014 29.94 844 24.92 7.6 45.6 41 -4.9 23.1
23:35 1014 29.94 844 24.92 7.4 45.4 41 -5.1 22.8
23:40 1014 29.94 844 24.92 7.6 45.6 40 -5.1 22.9
23:45 1014 29.94 844 24.92 7.7 45.9 41 -4.7 23.6
23:50 1015 29.97 844 24.92 7.6 45.8 42 -4.5 23.9
23:55 1015 29.97 844 24.92 7.8 46 41 -4.6 23.7
24:00 1015 29.97 844 24.92 7.9 46.3 40 -4.9 23.2